Time,TemperatureF,DewpointF,PressureIn,WindDirection,WindDirectionDegrees,WindSpeedMPH,WindSpeedGustMPH,Humidity,HourlyPrecipIn,Conditions,Clouds,dailyrainin,SolarRadiationWatts/m^2,SoftwareType,DateUTC
2013-10-13 00:13:00,34.0,32.0,30.25,South,169,2.0,5.0,91,0.00,,,0.00,0,weatherlink.com 1.10,2013-10-13 06:13:00,
2013-10-13 00:29:00,33.7,31.4,30.25,South,169,1.0,6.0,91,0.00,,---,0.00,0.00,VWS V14.01,2013-10-13 06:29:00,
2013-10-13 00:47:00,33.8,32.0,30.25,South,169,4.0,4.0,91,0.00,,,0.00,0,weatherlink.com 1.10,2013-10-13 06:47:00,
2013-10-13 00:59:00,33.7,31.4,30.25,South,173,5.0,5.0,91,0.00,,---,0.00,0.00,VWS V14.01,2013-10-13 06:59:00,
2013-10-13 01:19:00,33.2,31.0,30.25,South,174,4.0,4.0,91,0.00,,,0.00,0,weatherlink.com 1.10,2013-10-13 07:19:00,
2013-10-13 01:29:00,33.4,31.1,30.25,South,173,2.0,5.0,91,0.00,,---,0.00,0.00,VWS V14.01,2013-10-13 07:29:00,
2013-10-13 01:35:00,33.5,31.0,30.25,South,173,3.0,5.0,91,0.00,,,0.00,0,weatherlink.com 1.10,2013-10-13 07:35:00,
2013-10-13 01:52:00,33.1,31.0,30.24,South,173,3.0,5.0,91,0.00,,,0.00,0,weatherlink.com 1.10,2013-10-13 07:52:00,
2013-10-13 01:59:00,32.8,30.7,30.24,South,173,3.0,5.0,92,0.00,,---,0.00,0.00,VWS V14.01,2013-10-13 07:59:00,
2013-10-13 02:08:00,32.7,31.0,30.24,South,173,4.0,5.0,92,0.00,,,0.00,0,weatherlink.com 1.10,2013-10-13 08:08:00,
2013-10-13 02:24:00,32.3,30.0,30.24,South,173,3.0,5.0,92,0.00,,,0.00,0,weatherlink.com 1.10,2013-10-13 08:24:00,
2013-10-13 02:41:00,32.3,30.0,30.24,South,173,4.0,5.0,92,0.00,,,0.00,0,weatherlink.com 1.10,2013-10-13 08:41:00,
2013-10-13 02:58:00,32.0,30.0,30.23,South,173,4.0,4.0,92,0.00,,,0.00,0,weatherlink.com 1.10,2013-10-13 08:58:00,
2013-10-13 03:14:00,31.2,29.0,30.23,South,173,3.0,3.0,93,0.00,,,0.00,0,weatherlink.com 1.10,2013-10-13 09:14:00,
2013-10-13 03:29:00,30.8,29.0,30.22,SSE,162,1.0,6.0,93,0.00,,---,0.00,0.00,VWS V14.01,2013-10-13 09:29:00,
2013-10-13 03:47:00,31.1,30.0,30.22,South,171,6.0,6.0,94,0.00,,,0.00,0,weatherlink.com 1.10,2013-10-13 09:47:00,
2013-10-13 03:59:00,31.5,30.0,30.22,South,171,1.0,5.0,94,0.00,,---,0.00,0.00,VWS V14.01,2013-10-13 09:59:00,
2013-10-13 04:04:00,31.5,30.0,30.22,South,171,2.0,3.0,94,0.00,,,0.00,0,weatherlink.com 1.10,2013-10-13 10:04:00,
2013-10-13 04:21:00,31.4,30.0,30.22,South,171,4.0,4.0,94,0.00,,,0.00,0,weatherlink.com 1.10,2013-10-13 10:21:00,
2013-10-13 04:29:00,31.4,29.9,30.22,South,171,3.0,5.0,94,0.00,,---,0.00,0.00,VWS V14.01,2013-10-13 10:29:00,
2013-10-13 04:37:00,31.4,30.0,30.22,South,171,3.0,4.0,94,0.00,,,0.00,0,weatherlink.com 1.10,2013-10-13 10:37:00,
2013-10-13 04:53:00,31.1,29.0,30.22,South,171,3.0,5.0,93,0.01,,,0.01,0,weatherlink.com 1.10,2013-10-13 10:53:00,
2013-10-13 04:59:00,31.1,29.3,30.22,South,171,3.0,5.0,93,0.01,,---,0.01,0.00,VWS V14.01,2013-10-13 10:59:00,
2013-10-13 05:09:00,30.7,29.0,30.22,South,171,1.0,3.0,93,0.01,,,0.01,0,weatherlink.com 1.10,2013-10-13 11:09:00,
2013-10-13 05:26:00,30.2,29.0,30.21,South,171,4.0,4.0,94,0.01,,,0.01,0,weatherlink.com 1.10,2013-10-13 11:26:00,
2013-10-13 05:43:00,30.6,29.0,30.21,South,171,4.0,5.0,94,0.01,,,0.01,0,weatherlink.com 1.10,2013-10-13 11:43:00,
2013-10-13 05:59:00,30.1,29.0,30.21,South,171,1.0,2.0,94,0.00,,,0.01,0,weatherlink.com 1.10,2013-10-13 11:59:00,
2013-10-13 06:16:00,30.5,29.0,30.20,South,171,0.0,1.0,94,0.00,,,0.01,0,weatherlink.com 1.10,2013-10-13 12:16:00,
2013-10-13 06:29:00,30.8,29.3,30.20,South,171,0.0,2.0,94,0.00,,---,0.01,0.00,VWS V14.01,2013-10-13 12:29:00,
2013-10-13 06:48:00,30.8,29.0,30.20,South,171,0.0,3.0,94,0.00,,,0.01,0,weatherlink.com 1.10,2013-10-13 12:48:00,
2013-10-13 06:59:00,30.8,29.3,30.20,South,171,3.0,4.0,94,0.00,,---,0.01,0.00,VWS V14.01,2013-10-13 12:59:00,
2013-10-13 07:05:00,30.7,29.0,30.21,South,171,1.0,4.0,94,0.00,,,0.01,0,weatherlink.com 1.10,2013-10-13 13:05:00,
2013-10-13 07:22:00,30.6,29.0,30.21,South,171,0.0,2.0,94,0.00,,,0.01,11,weatherlink.com 1.10,2013-10-13 13:22:00,
2013-10-13 07:29:00,30.9,29.4,30.21,South,171,3.0,3.0,94,0.00,,---,0.01,25.00,VWS V14.01,2013-10-13 13:29:00,
2013-10-13 07:38:00,31.1,30.0,30.21,South,171,0.0,4.0,94,0.00,,,0.01,47,weatherlink.com 1.10,2013-10-13 13:38:00,
2013-10-13 07:54:00,33.1,32.0,30.21,South,171,0.0,2.0,94,0.00,,,0.01,40,weatherlink.com 1.10,2013-10-13 13:54:00,
2013-10-13 08:11:00,35.6,34.0,30.21,South,171,0.0,1.0,94,0.00,,,0.01,141,weatherlink.com 1.10,2013-10-13 14:11:00,
2013-10-13 08:28:00,37.9,36.0,30.21,South,171,3.0,6.0,93,0.00,,,0.01,114,weatherlink.com 1.10,2013-10-13 14:28:00,
2013-10-13 08:44:00,39.8,37.0,30.21,South,171,2.0,5.0,89,0.00,,,0.01,130,weatherlink.com 1.10,2013-10-13 14:44:00,
2013-10-13 08:59:00,40.6,37.9,30.21,South,171,3.0,4.0,90,0.00,,---,0.01,172.00,VWS V14.01,2013-10-13 14:59:00,
2013-10-13 09:17:00,41.7,38.0,30.21,South,171,5.0,5.0,88,0.00,,,0.01,123,weatherlink.com 1.10,2013-10-13 15:17:00,
2013-10-13 09:29:00,43.4,40.1,30.21,SSE,166,4.0,8.0,88,0.00,,---,0.01,404.00,VWS V14.01,2013-10-13 15:29:00,
2013-10-13 09:50:00,43.9,40.0,30.21,SSW,193,7.0,10.0,85,0.00,,,0.01,439,weatherlink.com 1.10,2013-10-13 15:50:00,
2013-10-13 09:59:00,44.0,40.1,30.21,South,176,5.0,10.0,86,0.00,,---,0.01,229.00,VWS V14.01,2013-10-13 15:59:00,
2013-10-13 10:06:00,45.1,41.0,30.21,South,182,7.0,9.0,85,0.00,,,0.01,571,weatherlink.com 1.10,2013-10-13 16:06:00,
2013-10-13 10:23:00,46.6,42.0,30.20,SSE,154,6.0,9.0,84,0.00,,,0.01,642,weatherlink.com 1.10,2013-10-13 16:23:00,
2013-10-13 10:29:00,47.7,41.5,30.20,South,175,8.0,10.0,79,0.00,,---,0.01,684.00,VWS V14.01,2013-10-13 16:29:00,
2013-10-13 10:39:00,48.4,41.0,30.20,SSE,152,8.0,12.0,75,0.00,,,0.01,346,weatherlink.com 1.10,2013-10-13 16:39:00,
2013-10-13 10:55:00,48.3,40.0,30.19,SSE,166,12.0,14.0,72,0.00,,,0.01,274,weatherlink.com 1.10,2013-10-13 16:55:00,
2013-10-13 11:12:00,48.0,40.0,30.18,South,180,14.0,14.0,73,0.00,,,0.01,494,weatherlink.com 1.10,2013-10-13 17:12:00,
2013-10-13 11:29:00,48.5,40.0,30.18,SSE,155,10.0,15.0,72,0.00,,,0.01,315,weatherlink.com 1.10,2013-10-13 17:29:00,
2013-10-13 11:45:00,49.6,40.0,30.18,South,177,13.0,14.0,70,0.00,,,0.01,309,weatherlink.com 1.10,2013-10-13 17:45:00,
2013-10-13 11:59:00,49.9,38.2,30.17,SSE,153,9.0,15.0,64,0.00,,---,0.01,336.00,VWS V14.01,2013-10-13 17:59:00,
2013-10-13 12:18:00,51.8,38.0,30.17,South,170,9.0,17.0,59,0.00,,,0.01,353,weatherlink.com 1.10,2013-10-13 18:18:00,
2013-10-13 12:29:00,51.9,38.9,30.16,SSE,163,7.0,16.0,61,0.00,,---,0.01,316.00,VWS V14.01,2013-10-13 18:29:00,
2013-10-13 12:35:00,52.8,39.0,30.15,SSE,161,14.0,15.0,61,0.00,,,0.01,640,weatherlink.com 1.10,2013-10-13 18:35:00,
2013-10-13 12:51:00,53.8,38.0,30.14,SSE,167,13.0,18.0,56,0.00,,,0.01,257,weatherlink.com 1.10,2013-10-13 18:51:00,
2013-10-13 12:59:00,54.3,37.5,30.14,SSE,160,11.0,16.0,53,0.00,,---,0.01,759.00,VWS V14.01,2013-10-13 18:59:00,
2013-10-13 13:08:00,53.0,38.0,30.13,SSW,205,10.0,15.0,58,0.00,,,0.01,316,weatherlink.com 1.10,2013-10-13 19:08:00,
2013-10-13 13:25:00,55.8,39.0,30.12,South,171,10.0,17.0,53,0.00,,,0.01,606,weatherlink.com 1.10,2013-10-13 19:25:00,
2013-10-13 13:41:00,54.9,39.0,30.10,South,169,8.0,16.0,55,0.00,,,0.01,601,weatherlink.com 1.10,2013-10-13 19:41:00,
2013-10-13 13:57:00,55.6,40.0,30.09,SSE,163,8.0,19.0,56,0.00,,,0.01,642,weatherlink.com 1.10,2013-10-13 19:57:00,
2013-10-13 14:13:00,55.8,41.0,30.08,SSE,167,10.0,16.0,57,0.00,,,0.01,622,weatherlink.com 1.10,2013-10-13 20:13:00,
2013-10-13 14:29:00,55.4,41.3,30.07,SSE,167,13.0,19.0,59,0.00,,---,0.01,564.00,VWS V14.01,2013-10-13 20:29:00,
2013-10-13 14:46:00,55.8,41.0,30.07,SE,142,16.0,16.0,58,0.00,,,0.01,520,weatherlink.com 1.10,2013-10-13 20:46:00,
2013-10-13 14:59:00,55.1,40.6,30.07,SSE,147,10.0,15.0,58,0.00,,---,0.01,496.00,VWS V14.01,2013-10-13 20:59:00,
2013-10-13 15:19:00,54.8,40.0,30.06,SE,146,11.0,18.0,58,0.00,,,0.01,457,weatherlink.com 1.10,2013-10-13 21:19:00,
2013-10-13 15:29:00,54.9,40.4,30.06,SSE,147,10.0,20.0,58,0.00,,---,0.01,413.00,VWS V14.01,2013-10-13 21:29:00,
2013-10-13 15:37:00,54.1,40.0,30.06,SSE,159,13.0,18.0,59,0.00,,,0.01,202,weatherlink.com 1.10,2013-10-13 21:37:00,
2013-10-13 15:53:00,52.4,39.0,30.06,South,177,13.0,20.0,61,0.00,,,0.01,102,weatherlink.com 1.10,2013-10-13 21:53:00,
2013-10-13 15:59:00,51.7,37.8,30.06,South,177,13.0,18.0,59,0.00,,---,0.01,109.00,VWS V14.01,2013-10-13 21:59:00,
2013-10-13 16:09:00,51.9,39.0,30.06,South,170,12.0,14.0,62,0.00,,,0.01,121,weatherlink.com 1.10,2013-10-13 22:09:00,
2013-10-13 16:25:00,52.2,38.0,30.06,SSE,165,7.0,15.0,59,0.00,,,0.01,100,weatherlink.com 1.10,2013-10-13 22:25:00,
2013-10-13 16:42:00,52.4,39.0,30.05,South,173,9.0,16.0,60,0.00,,,0.01,127,weatherlink.com 1.10,2013-10-13 22:42:00,
2013-10-13 16:59:00,52.3,40.0,30.05,South,169,13.0,18.0,63,0.00,,,0.01,128,weatherlink.com 1.10,2013-10-13 22:59:00,
2013-10-13 17:29:00,52.5,41.5,30.04,South,169,5.0,14.0,66,0.00,,---,0.01,70.00,VWS V14.01,2013-10-13 23:29:00,
2013-10-13 17:49:00,49.9,40.0,30.02,SSE,165,4.0,8.0,70,0.00,,,0.01,11,weatherlink.com 1.10,2013-10-13 23:49:00,
2013-10-13 17:59:00,47.7,39.8,30.02,SSE,164,3.0,12.0,74,0.00,,---,0.01,7.00,VWS V14.01,2013-10-13 23:59:00,
2013-10-13 18:20:00,46.5,40.0,30.03,SSE,164,0.0,2.0,79,0.00,,,0.01,0,weatherlink.com 1.10,2013-10-14 00:20:00,
2013-10-13 18:29:00,46.9,40.4,30.04,SSE,164,0.0,4.0,78,0.00,,---,0.01,0.00,VWS V14.01,2013-10-14 00:29:00,
2013-10-13 18:37:00,47.1,40.0,30.04,SSE,164,1.0,1.0,77,0.00,,,0.01,0,weatherlink.com 1.10,2013-10-14 00:37:00,
2013-10-13 18:53:00,47.4,41.0,30.05,SSW,209,3.0,6.0,77,0.00,,,0.01,0,weatherlink.com 1.10,2013-10-14 00:53:00,
2013-10-13 18:59:00,47.9,40.7,30.04,SW,222,3.0,6.0,76,0.00,,---,0.01,0.00,VWS V14.01,2013-10-14 00:59:00,
2013-10-13 19:09:00,47.8,40.0,30.04,WSW,242,3.0,5.0,74,0.00,,,0.01,0,weatherlink.com 1.10,2013-10-14 01:09:00,
2013-10-13 19:25:00,46.9,39.0,30.03,WSW,251,0.0,1.0,75,0.00,,,0.01,0,weatherlink.com 1.10,2013-10-14 01:25:00,
2013-10-13 19:43:00,46.3,39.0,30.03,WSW,251,1.0,2.0,75,0.00,,,0.01,0,weatherlink.com 1.10,2013-10-14 01:43:00,
2013-10-13 19:58:00,46.0,39.0,30.02,South,175,2.0,5.0,77,0.00,,,0.01,0,weatherlink.com 1.10,2013-10-14 01:58:00,
2013-10-13 20:16:00,46.4,41.0,30.01,ESE,111,3.0,8.0,80,0.00,,,0.01,0,weatherlink.com 1.10,2013-10-14 02:16:00,
2013-10-13 20:29:00,46.2,41.3,30.00,SE,144,9.0,10.0,83,0.00,,---,0.01,0.00,VWS V14.01,2013-10-14 02:29:00,
2013-10-13 20:49:00,45.6,42.0,29.99,SSE,167,5.0,10.0,87,0.00,,,0.01,0,weatherlink.com 1.10,2013-10-14 02:49:00,
2013-10-13 20:59:00,44.3,40.4,29.99,South,182,6.0,10.0,86,0.00,,---,0.01,0.00,VWS V14.01,2013-10-14 02:59:00,
2013-10-13 21:05:00,43.7,40.0,29.99,South,177,5.0,9.0,88,0.00,,,0.01,0,weatherlink.com 1.10,2013-10-14 03:05:00,
2013-10-13 21:21:00,44.9,43.0,30.00,South,180,9.0,16.0,92,0.00,,,0.01,0,weatherlink.com 1.10,2013-10-14 03:21:00,
2013-10-13 21:29:00,44.3,41.6,30.00,SW,215,4.0,15.0,90,0.00,,---,0.01,0.00,VWS V14.01,2013-10-14 03:29:00,
2013-10-13 21:37:00,43.7,41.0,29.99,SW,215,4.0,7.0,91,0.00,,,0.01,0,weatherlink.com 1.10,2013-10-14 03:37:00,
2013-10-13 21:54:00,44.8,42.0,29.99,West,275,4.0,7.0,91,0.00,,,0.01,0,weatherlink.com 1.10,2013-10-14 03:54:00,
2013-10-13 21:59:00,45.0,42.5,29.99,West,259,6.0,7.0,91,0.00,,---,0.01,0.00,VWS V14.01,2013-10-14 03:59:00,
2013-10-13 22:10:00,45.0,43.0,29.98,WSW,257,6.0,7.0,91,0.00,,,0.01,0,weatherlink.com 1.10,2013-10-14 04:10:00,
2013-10-13 22:27:00,45.9,44.0,29.98,SW,236,5.0,9.0,92,0.00,,,0.01,0,weatherlink.com 1.10,2013-10-14 04:27:00,
2013-10-13 22:29:00,45.9,43.4,29.98,WSW,237,5.0,9.0,91,0.00,,---,0.01,0.00,VWS V14.01,2013-10-14 04:29:00,
2013-10-13 22:43:00,46.0,44.0,29.98,SW,233,6.0,9.0,91,0.00,,,0.01,0,weatherlink.com 1.10,2013-10-14 04:43:00,
2013-10-13 22:59:00,46.1,43.6,29.96,SW,223,4.0,8.0,91,0.00,,---,0.01,0.00,VWS V14.01,2013-10-14 04:59:00,
2013-10-13 23:00:00,46.0,44.0,29.96,SW,223,5.0,8.0,91,0.00,,,0.01,0,weatherlink.com 1.10,2013-10-14 05:00:00,
2013-10-13 23:16:00,44.9,43.0,29.94,South,186,3.0,6.0,91,0.00,,,0.01,0,weatherlink.com 1.10,2013-10-14 05:16:00,
2013-10-13 23:29:00,44.3,42.4,29.92,South,186,3.0,6.0,93,0.00,,---,0.01,0.00,VWS V14.01,2013-10-14 05:29:00,
2013-10-13 23:49:00,44.3,42.0,29.92,South,186,1.0,4.0,93,0.00,,,0.01,0,weatherlink.com 1.10,2013-10-14 05:49:00,
2013-10-13 23:59:00,44.7,43.1,29.91,South,186,0.0,4.0,94,0.00,,---,0.01,0.00,VWS V14.01,2013-10-14 05:59:00,